Time;durP1;ratioP1;P1;durP2;ratioP2;P2;SDS_P1;SDS_P2;PMS_P1;PMS_P2;Temp;Humidity;BMP_temperature;BMP_pressure;BME280_temperature;BME280_humidity;BME280_pressure;Samples;Min_cycle;Max_cycle;Signal;HPM_P1;HPM_P2
2023/07/04 00:00:24;;;;;;;;;;;21.90;40.00;;;21.03;41.01;100589.88;12252310;19;19915;-89
2023/07/04 00:04:29;;;;;;;;;;;21.80;40.00;;;20.98;40.68;100593.03;12250978;19;19918;-89
2023/07/04 00:08:33;;;;;;;;;;;21.80;40.10;;;20.96;40.84;100586.19;12250813;19;19989;-88
2023/07/04 00:12:35;;;;;;;;;;;21.80;40.10;;;21.03;40.74;100595.19;12249443;19;19918;-88
2023/07/04 00:16:37;;;;;;;;;;;21.80;40.10;;;20.88;40.67;100567.56;12249494;19;20347;-88
2023/07/04 00:20:38;;;;;;;;;;;21.80;40.10;;;20.82;40.62;100561.06;12251442;19;19929;-88
2023/07/04 00:24:40;;;;;;;;;;;21.80;40.10;;;20.98;40.97;100579.75;12247010;19;19913;-89
2023/07/04 00:28:43;;;;;;;;;;;21.80;40.10;;;20.89;40.84;100574.53;12252813;19;19936;-89
2023/07/04 00:32:45;;;;;;;;;;;21.80;40.20;;;20.92;41.00;100571.56;12249581;19;19940;-89
2023/07/04 00:36:47;;;;;;;;;;;21.80;40.20;;;20.71;41.14;100532.09;12251240;19;19926;-89
2023/07/04 00:40:50;;;;;;;;;;;21.70;40.10;;;20.91;40.74;100568.06;12251834;19;19930;-89
2023/07/04 00:44:55;;;;;;;;;;;21.70;40.10;;;20.91;41.16;100561.94;12240777;19;20275;-90
2023/07/04 00:48:57;;;;;;;;;;;21.70;40.10;;;20.92;40.79;100567.06;12249127;19;20333;-89
2023/07/04 00:53:04;;;;;;;;;;;21.70;40.10;;;20.95;40.91;100571.25;12246447;19;19931;-89
2023/07/04 00:57:06;;;;;;;;;;;21.70;40.10;;;20.69;41.16;100531.44;12248507;19;19918;-89
2023/07/04 01:01:08;;;;;;;;;;;21.70;40.40;;;20.87;40.85;100552.59;12248394;19;20253;-89
2023/07/04 01:05:09;;;;;;;;;;;21.70;40.10;;;20.87;41.17;100556.09;12248107;19;19917;-89
2023/07/04 01:09:12;;;;;;;;;;;21.70;40.00;;;20.93;41.05;100566.09;12248926;19;20385;-89
2023/07/04 01:13:39;;;;;;;;;;;21.80;40.10;;;20.94;41.10;100561.63;12246626;19;19923;-89
2023/07/04 01:17:42;;;;;;;;;;;21.80;40.10;;;20.90;41.11;100561.09;12245127;19;19922;-89
2023/07/04 01:21:48;;;;;;;;;;;21.80;40.00;;;20.93;40.93;100555.47;12245148;19;19919;-89
2023/07/04 01:26:02;;;;;;;;;;;21.80;40.10;;;21.00;41.34;100561.81;12244767;19;20337;-89
2023/07/04 01:30:06;;;;;;;;;;;21.80;40.00;;;21.03;40.88;100565.97;12248511;19;20366;-89
2023/07/04 01:34:08;;;;;;;;;;;21.80;40.00;;;20.97;41.09;100561.31;12243377;19;19978;-89
2023/07/04 01:38:11;;;;;;;;;;;21.80;40.00;;;21.03;40.93;100550.03;12247596;19;19915;-89
2023/07/04 01:42:13;;;;;;;;;;;21.90;40.10;;;20.86;41.29;100527.06;12245418;19;20329;-89
2023/07/04 01:46:14;;;;;;;;;;;21.90;40.10;;;21.05;41.42;100557.88;12249944;19;19935;-90
2023/07/04 01:50:16;;;;;;;;;;;21.90;40.00;;;21.04;41.41;100562.34;12246900;19;19932;-89
2023/07/04 01:54:18;;;;;;;;;;;21.90;40.10;;;20.98;41.43;100544.38;12245919;19;19914;-89
2023/07/04 01:58:21;;;;;;;;;;;21.90;40.10;;;21.05;41.44;100556.03;12247670;19;19925;-89
2023/07/04 02:02:23;;;;;;;;;;;21.90;40.00;;;21.03;41.21;100555.34;12260867;19;19926;-89
2023/07/04 02:06:24;;;;;;;;;;;21.90;40.00;;;21.04;41.27;100570.31;12260456;19;19926;-89
2023/07/04 02:10:27;;;;;;;;;;;21.90;40.00;;;20.99;41.50;100554.84;12261730;19;19915;-89
2023/07/04 02:14:28;;;;;;;;;;;21.90;40.00;;;21.05;41.39;100553.38;12252321;19;20257;-89
2023/07/04 02:18:31;;;;;;;;;;;21.90;40.00;;;20.94;41.29;100549.16;12258252;19;19918;-89
2023/07/04 02:22:33;;;;;;;;;;;21.90;40.00;;;20.90;41.30;100536.34;12256318;19;20240;-89
2023/07/04 02:26:35;;;;;;;;;;;21.90;40.00;;;21.00;41.47;100556.50;12257040;19;20419;-89
2023/07/04 02:30:37;;;;;;;;;;;21.90;40.00;;;21.00;41.15;100555.69;12256272;19;19919;-89
2023/07/04 02:34:38;;;;;;;;;;;21.90;40.00;;;20.98;41.45;100557.66;12251571;19;19939;-89
2023/07/04 02:38:42;;;;;;;;;;;21.90;40.00;;;20.92;41.30;100537.88;12251301;19;19926;-89
2023/07/04 02:42:44;;;;;;;;;;;21.90;40.00;;;20.86;41.36;100538.50;12251247;19;20238;-89
2023/07/04 02:46:46;;;;;;;;;;;21.90;40.00;;;20.91;41.32;100546.00;12254109;19;19918;-89
2023/07/04 02:50:48;;;;;;;;;;;21.80;39.90;;;20.96;41.31;100559.66;12253554;19;19919;-89
2023/07/04 02:54:50;;;;;;;;;;;21.80;40.00;;;20.86;41.06;100548.28;12250884;19;19934;-90
2023/07/04 02:58:51;;;;;;;;;;;21.80;40.00;;;20.96;41.07;100559.66;12256673;19;19923;-89
2023/07/04 03:02:53;;;;;;;;;;;21.80;40.00;;;20.91;41.46;100567.25;12254599;19;19926;-89
2023/07/04 03:06:57;;;;;;;;;;;21.80;40.00;;;20.90;41.35;100565.56;12253634;19;20254;-89
2023/07/04 03:11:01;;;;;;;;;;;21.80;40.10;;;20.81;41.33;100553.22;12253092;19;19935;-89
2023/07/04 03:15:07;;;;;;;;;;;21.70;40.00;;;20.89;41.46;100574.53;12254305;19;19918;-89
2023/07/04 03:19:12;;;;;;;;;;;21.80;40.10;;;20.88;41.36;100573.69;12254935;19;19914;-89
2023/07/04 03:23:14;;;;;;;;;;;21.70;40.10;;;20.69;41.56;100547.34;12251117;19;19915;-90
2023/07/04 03:27:16;;;;;;;;;;;21.70;40.10;;;20.85;41.50;100567.88;12254301;19;19919;-90
2023/07/04 03:31:19;;;;;;;;;;;21.70;40.10;;;20.85;41.50;100579.31;12252223;19;19911;-90
2023/07/04 03:35:22;;;;;;;;;;;21.70;40.20;;;20.85;41.39;100581.16;12252708;19;19923;-89
2023/07/04 03:39:25;;;;;;;;;;;21.70;40.20;;;20.83;41.55;100583.13;12239558;19;20444;-89
2023/07/04 03:43:26;;;;;;;;;;;21.70;40.10;;;20.80;41.61;100580.78;12248791;19;19911;-89
2023/07/04 03:47:28;;;;;;;;;;;21.70;40.20;;;20.73;41.43;100577.88;12251804;19;19925;-88
2023/07/04 03:51:30;;;;;;;;;;;21.60;40.30;;;20.74;41.39;100593.66;12246442;19;20294;-87
2023/07/04 03:55:32;;;;;;;;;;;21.60;40.40;;;20.51;41.76;100556.13;12251693;19;19932;-87
2023/07/04 03:59:34;;;;;;;;;;;21.60;40.40;;;20.71;41.61;100593.13;12250766;19;20337;-87
2023/07/04 04:03:38;;;;;;;;;;;21.60;40.40;;;20.75;41.42;100600.63;12248983;19;19918;-87
2023/07/04 04:07:40;;;;;;;;;;;21.60;40.40;;;20.68;41.58;100586.31;12254576;19;19923;-87
2023/07/04 04:11:42;;;;;;;;;;;21.60;40.80;;;20.64;41.50;100595.56;12254504;19;20003;-89
2023/07/04 04:15:43;;;;;;;;;;;21.60;40.80;;;20.69;41.80;100606.56;12250747;19;19986;-88
2023/07/04 04:19:45;;;;;;;;;;;21.60;40.50;;;20.59;41.63;100599.69;12255511;19;20619;-88
2023/07/04 04:23:46;;;;;;;;;;;21.60;40.60;;;20.61;41.95;100611.81;12249197;19;19930;-87
2023/07/04 04:27:48;;;;;;;;;;;21.50;40.60;;;20.51;41.38;100593.28;12251440;19;19946;-87
2023/07/04 04:31:50;;;;;;;;;;;21.50;40.70;;;20.62;41.42;100613.47;12248043;19;19919;-88
2023/07/04 04:35:52;;;;;;;;;;;21.50;40.80;;;20.59;41.74;100613.78;12252334;19;19970;-88
2023/07/04 04:39:54;;;;;;;;;;;21.50;40.70;;;20.61;41.87;100613.63;12251343;19;20321;-87
2023/07/04 04:43:58;;;;;;;;;;;21.60;40.70;;;20.75;41.91;100636.97;12247085;19;19978;-87
2023/07/04 04:48:01;;;;;;;;;;;21.60;40.80;;;20.68;41.64;100626.09;12249723;19;19911;-87
2023/07/04 04:52:04;;;;;;;;;;;21.60;40.80;;;20.77;41.73;100630.50;12248052;19;19929;-89
2023/07/04 04:56:07;;;;;;;;;;;21.60;40.80;;;20.82;41.85;100645.13;12252737;19;19924;-88
2023/07/04 05:00:10;;;;;;;;;;;21.70;41.10;;;20.70;41.53;100626.78;12249071;19;20317;-88
2023/07/04 05:04:12;;;;;;;;;;;21.70;40.90;;;20.94;41.65;100662.50;12248695;19;19919;-87
2023/07/04 05:08:13;;;;;;;;;;;21.70;40.90;;;20.76;41.88;100631.47;12251569;19;20238;-87
2023/07/04 05:12:15;;;;;;;;;;;21.80;40.90;;;20.99;42.05;100671.66;12246337;19;19923;-87
2023/07/04 05:16:19;;;;;;;;;;;21.80;41.00;;;20.91;41.94;100654.84;12249438;19;19947;-88
2023/07/04 05:20:24;;;;;;;;;;;21.90;40.90;;;20.95;41.96;100661.50;12249237;19;20330;-88
2023/07/04 05:24:26;;;;;;;;;;;21.90;40.90;;;21.09;42.11;100679.56;12244958;19;19962;-87
2023/07/04 05:28:28;;;;;;;;;;;22.00;41.00;;;21.12;42.02;100681.06;12247422;19;19971;-88
2023/07/04 05:32:30;;;;;;;;;;;22.00;40.90;;;21.03;42.16;100666.03;12253545;19;19923;-87
2023/07/04 05:36:33;;;;;;;;;;;22.00;40.90;;;21.05;42.04;100662.25;12261651;19;19911;-87
2023/07/04 05:40:39;;;;;;;;;;;22.10;40.90;;;21.28;41.95;100680.34;12260004;19;19923;-87
2023/07/04 05:44:41;;;;;;;;;;;22.10;40.90;;;21.33;42.02;100683.34;12254085;19;19919;-88
2023/07/04 05:48:43;;;;;;;;;;;22.20;41.00;;;21.42;41.78;100695.75;12257000;19;19930;-83
2023/07/04 05:52:45;;;;;;;;;;;22.30;41.00;;;21.53;42.05;100707.94;12254122;19;19918;-83
2023/07/04 05:56:50;;;;;;;;;;;22.40;40.90;;;21.44;42.29;100693.75;12256523;19;19915;-83
2023/07/04 06:00:52;;;;;;;;;;;22.40;40.90;;;21.58;42.22;100690.53;12256916;19;19933;-83
2023/07/04 06:04:53;;;;;;;;;;;22.60;41.20;;;21.73;42.33;100696.09;12251146;19;19911;-83
2023/07/04 06:08:57;;;;;;;;;;;22.60;41.00;;;21.91;41.90;100719.97;12254551;19;20353;-83
2023/07/04 06:12:58;;;;;;;;;;;22.80;40.90;;;21.98;42.11;100718.34;12254093;19;19923;-84
2023/07/04 06:17:02;;;;;;;;;;;22.90;40.80;;;21.96;42.05;100716.84;12255029;19;19938;-83
2023/07/04 06:21:08;;;;;;;;;;;22.90;40.70;;;22.05;42.11;100707.88;12256145;19;19911;-84
2023/07/04 06:25:09;;;;;;;;;;;23.00;40.70;;;22.14;41.90;100714.06;12256596;19;19915;-83
2023/07/04 06:29:11;;;;;;;;;;;23.00;40.70;;;22.22;42.05;100714.94;12256438;19;19927;-83
2023/07/04 06:33:12;;;;;;;;;;;23.10;40.70;;;22.31;42.19;100723.81;12251568;19;19922;-83
2023/07/04 06:37:14;;;;;;;;;;;23.20;40.80;;;22.46;41.95;100751.47;12254769;19;20356;-82
2023/07/04 06:41:16;;;;;;;;;;;23.30;40.70;;;22.53;42.26;100741.00;12253963;19;19915;-82
2023/07/04 06:45:17;;;;;;;;;;;23.40;40.80;;;22.68;42.05;100755.38;12250388;19;19935;-83
2023/07/04 06:49:19;;;;;;;;;;;23.60;40.60;;;22.74;41.95;100756.53;12259148;19;19926;-81
2023/07/04 06:53:21;;;;;;;;;;;23.70;40.60;;;22.78;41.87;100765.84;12248153;19;19919;-82
2023/07/04 06:57:23;;;;;;;;;;;23.70;40.40;;;22.86;42.22;100752.56;12252170;19;19918;-82
2023/07/04 07:01:28;;;;;;;;;;;23.80;40.40;;;22.84;42.20;100751.06;12248855;19;19919;-83
2023/07/04 07:05:29;;;;;;;;;;;23.90;40.30;;;22.94;41.72;100762.41;12251316;19;20273;-83
2023/07/04 07:09:40;;;;;;;;;;;23.90;39.90;;;22.88;41.88;100745.25;12251087;19;19922;-84
2023/07/04 07:13:42;;;;;;;;;;;23.90;40.00;;;23.03;42.01;100763.25;12246642;19;19929;-84
2023/07/04 07:17:43;;;;;;;;;;;24.00;40.30;;;23.08;42.02;100768.94;12252251;19;19994;-84
2023/07/04 07:21:45;;;;;;;;;;;24.00;40.20;;;23.22;42.14;100780.75;12256258;19;19970;-84
2023/07/04 07:25:56;;;;;;;;;;;24.10;40.20;;;23.15;42.17;100745.97;12251852;19;19970;-84
2023/07/04 07:29:58;;;;;;;;;;;24.30;40.30;;;23.44;41.88;100773.94;12254165;19;19911;-84
2023/07/04 07:34:00;;;;;;;;;;;24.30;40.20;;;23.37;41.88;100758.59;12246372;19;19938;-84
2023/07/04 07:38:02;;;;;;;;;;;24.40;40.20;;;23.58;41.81;100770.59;12252047;19;20277;-83
2023/07/04 07:42:04;;;;;;;;;;;24.60;39.60;;;23.60;41.57;100779.25;12250621;19;20233;-82
2023/07/04 07:46:07;;;;;;;;;;;24.60;40.10;;;23.61;41.60;100780.94;12249372;19;19930;-83
2023/07/04 07:50:09;;;;;;;;;;;24.70;39.50;;;23.66;41.71;100780.44;12251865;19;19938;-83
2023/07/04 07:54:10;;;;;;;;;;;24.70;39.50;;;23.69;41.66;100775.59;12244183;19;19922;-82
2023/07/04 07:58:11;;;;;;;;;;;24.70;39.50;;;23.78;41.47;100790.59;12248562;19;19921;-82
2023/07/04 08:02:13;;;;;;;;;;;24.70;39.70;;;23.85;41.85;100791.59;12245528;19;19926;-82
2023/07/04 08:06:34;;;;;;;;;;;24.80;39.60;;;24.00;41.46;100794.38;12244923;19;19911;-83
2023/07/04 08:10:38;;;;;;;;;;;24.90;39.70;;;24.01;41.67;100798.72;12248084;19;19923;-82
2023/07/04 08:14:39;;;;;;;;;;;25.00;39.40;;;24.01;41.65;100789.88;12245341;19;19919;-83
2023/07/04 08:18:41;;;;;;;;;;;25.00;39.50;;;24.02;41.30;100786.22;12247863;19;19915;-83
2023/07/04 08:22:42;;;;;;;;;;;25.10;39.40;;;24.12;41.62;100797.53;12247138;19;19926;-84
2023/07/04 08:26:46;;;;;;;;;;;25.10;39.10;;;24.12;41.65;100802.03;12249944;19;19915;-82
2023/07/04 08:30:48;;;;;;;;;;;25.10;39.20;;;24.08;41.64;100801.53;12249375;19;19915;-82
2023/07/04 08:34:49;;;;;;;;;;;25.10;39.20;;;24.02;41.21;100796.88;12241886;19;19978;-83
2023/07/04 08:38:51;;;;;;;;;;;25.10;39.20;;;24.04;41.23;100803.72;12249801;19;19923;-82
2023/07/04 08:42:57;;;;;;;;;;;25.00;38.90;;;24.04;41.19;100803.72;12240202;19;21397;-84
2023/07/04 08:46:59;;;;;;;;;;;25.00;39.60;;;24.05;41.17;100785.84;12245324;19;20321;-83
2023/07/04 08:51:03;;;;;;;;;;;25.00;39.30;;;24.28;41.55;100818.81;12244040;19;19923;-83
2023/07/04 08:55:08;;;;;;;;;;;25.10;39.20;;;24.33;41.24;100812.13;12247110;19;19982;-84
2023/07/04 08:59:21;;;;;;;;;;;25.20;39.20;;;24.48;41.27;100813.09;12244190;19;20277;-83
2023/07/04 09:03:29;;;;;;;;;;;25.30;39.20;;;24.59;41.13;100835.91;12244305;19;19911;-82
2023/07/04 09:07:38;;;;;;;;;;;25.40;39.10;;;24.63;41.34;100819.38;12240474;19;20379;-82
2023/07/04 09:11:41;;;;;;;;;;;25.50;38.30;;;24.70;41.22;100820.31;12243726;19;19918;-83
2023/07/04 09:15:45;;;;;;;;;;;25.60;38.60;;;24.62;41.11;100809.69;12238056;19;19918;-85
2023/07/04 09:19:47;;;;;;;;;;;25.60;37.70;;;24.57;40.79;100801.38;12244006;19;20325;-83
2023/07/04 09:23:50;;;;;;;;;;;25.60;38.70;;;24.51;41.07;100783.38;12241715;19;19994;-84
2023/07/04 09:27:52;;;;;;;;;;;25.60;39.10;;;24.70;40.85;100815.00;12245609;19;19907;-82
2023/07/04 09:31:56;;;;;;;;;;;25.60;39.10;;;24.85;41.18;100828.44;12243353;19;19919;-84
2023/07/04 09:35:59;;;;;;;;;;;25.70;38.30;;;24.75;40.83;100790.44;12246212;19;19924;-84
2023/07/04 09:40:01;;;;;;;;;;;25.80;38.10;;;24.87;40.60;100801.53;12240186;19;19953;-83
2023/07/04 09:44:19;;;;;;;;;;;25.80;38.10;;;24.99;40.58;100829.53;12240684;19;19915;-83
2023/07/04 09:48:24;;;;;;;;;;;25.90;38.50;;;25.04;40.82;100827.16;12242194;19;19958;-83
2023/07/04 09:52:26;;;;;;;;;;;26.00;38.50;;;25.09;40.94;100827.47;12242342;19;20290;-84
2023/07/04 09:56:28;;;;;;;;;;;26.00;38.10;;;24.93;40.71;100787.50;12243357;19;19923;-83
2023/07/04 10:00:30;;;;;;;;;;;26.10;38.30;;;25.32;40.71;100837.34;12244312;19;19915;-83
2023/07/04 10:04:36;;;;;;;;;;;26.20;38.70;;;25.27;40.61;100818.34;12240481;19;19915;-84
2023/07/04 10:08:53;;;;;;;;;;;26.20;38.00;;;25.33;40.66;100818.47;12243322;19;19930;-83
2023/07/04 10:12:54;;;;;;;;;;;26.30;38.30;;;25.36;40.69;100827.97;12238360;19;20270;-85
2023/07/04 10:16:57;;;;;;;;;;;26.30;37.50;;;25.39;40.57;100855.19;12244536;19;19918;-83
2023/07/04 10:21:00;;;;;;;;;;;26.30;38.30;;;25.42;40.32;100845.16;12253595;19;19927;-84
2023/07/04 10:25:05;;;;;;;;;;;26.30;38.30;;;25.43;40.48;100841.44;12256013;19;19914;-87
2023/07/04 10:29:08;;;;;;;;;;;26.30;37.80;;;25.48;40.34;100847.91;12254113;19;19927;-84
2023/07/04 10:33:36;;;;;;;;;;;26.40;38.80;;;25.50;40.71;100851.25;12251697;19;19919;-83
2023/07/04 10:37:39;;;;;;;;;;;26.40;38.20;;;25.51;39.91;100839.53;12252169;19;19930;-83
2023/07/04 10:42:08;;;;;;;;;;;26.40;37.80;;;25.63;40.18;100841.78;12253625;19;19922;-86
2023/07/04 10:46:14;;;;;;;;;;;26.50;38.40;;;25.69;40.18;100844.56;12254488;19;20168;-84
2023/07/04 10:50:22;;;;;;;;;;;26.60;38.30;;;25.71;40.18;100842.56;12254419;19;20329;-85
2023/07/04 10:54:24;;;;;;;;;;;26.60;38.00;;;25.85;40.01;100834.78;12247260;19;19911;-84
2023/07/04 10:58:29;;;;;;;;;;;26.70;37.40;;;25.94;39.88;100847.88;12254990;19;19938;-84
2023/07/04 11:02:36;;;;;;;;;;;26.80;37.70;;;26.00;39.88;100820.38;12250975;19;19959;-83
2023/07/04 11:06:44;;;;;;;;;;;26.90;37.40;;;26.11;40.00;100831.66;12250447;19;19978;-84
2023/07/04 11:10:50;;;;;;;;;;;27.00;38.10;;;26.15;39.91;100841.00;12250848;19;19942;-83
2023/07/04 11:15:03;;;;;;;;;;;27.10;38.10;;;26.21;39.91;100848.28;12245587;19;19923;-83
2023/07/04 11:19:25;;;;;;;;;;;27.10;37.90;;;26.12;39.57;100827.97;12251949;19;19926;-84
2023/07/04 11:23:46;;;;;;;;;;;27.10;37.80;;;26.24;40.00;100850.59;12245482;19;19919;-83
2023/07/04 11:28:16;;;;;;;;;;;27.10;37.50;;;26.29;39.87;100850.03;12250720;19;19907;-84
2023/07/04 11:32:22;;;;;;;;;;;27.10;38.00;;;26.24;39.53;100839.88;12247685;19;19928;-83
2023/07/04 11:36:34;;;;;;;;;;;27.20;38.10;;;26.02;39.71;100801.47;12249378;19;19923;-83
2023/07/04 11:40:43;;;;;;;;;;;27.20;38.10;;;26.34;39.48;100848.47;12249032;19;20384;-84
2023/07/04 11:45:03;;;;;;;;;;;27.20;36.60;;;26.39;39.81;100846.06;12246449;19;19939;-84
2023/07/04 11:49:19;;;;;;;;;;;27.20;37.40;;;26.37;39.54;100840.06;12252090;19;20333;-83
2023/07/04 11:53:45;;;;;;;;;;;27.20;37.50;;;26.34;39.55;100845.78;12246054;19;19924;-84
2023/07/04 11:58:16;;;;;;;;;;;27.20;37.00;;;26.42;39.45;100839.50;12249731;19;19914;-84
2023/07/04 12:02:31;;;;;;;;;;;27.20;37.30;;;26.56;39.47;100845.91;12247129;19;19970;-83
2023/07/04 12:06:45;;;;;;;;;;;27.30;37.50;;;26.67;39.48;100843.56;12250775;19;19921;-85
2023/07/04 12:10:47;;;;;;;;;;;27.40;38.00;;;26.72;39.28;100834.13;12247441;19;19923;-83
2023/07/04 12:14:57;;;;;;;;;;;27.60;38.00;;;26.81;39.51;100847.22;12245771;19;19922;-84
2023/07/04 12:19:04;;;;;;;;;;;27.70;36.90;;;26.82;39.45;100838.19;12249284;19;19936;-84
2023/07/04 12:23:10;;;;;;;;;;;27.70;37.60;;;26.70;39.13;100813.72;12247050;19;19952;-84
2023/07/04 12:27:11;;;;;;;;;;;27.70;37.40;;;26.90;39.20;100832.72;12251422;19;19915;-84
2023/07/04 12:31:14;;;;;;;;;;;27.80;38.10;;;26.95;39.11;100833.97;12247004;19;19923;-84
2023/07/04 12:35:18;;;;;;;;;;;27.80;37.20;;;26.93;39.18;100834.19;12249261;19;19927;-84
2023/07/04 12:39:20;;;;;;;;;;;27.90;37.50;;;27.04;39.03;100851.63;12247227;19;19919;-82
2023/07/04 12:43:27;;;;;;;;;;;27.90;36.90;;;27.00;39.01;100848.47;12245782;19;20289;-84
2023/07/04 12:47:32;;;;;;;;;;;27.90;37.20;;;26.89;38.96;100827.53;12245378;19;19919;-83
2023/07/04 12:51:33;;;;;;;;;;;27.90;37.30;;;26.98;38.83;100849.69;12242924;19;19942;-85
2023/07/04 12:55:36;;;;;;;;;;;27.90;37.00;;;27.03;38.92;100852.63;12243591;19;19915;-83
2023/07/04 12:59:39;;;;;;;;;;;27.90;36.80;;;27.08;39.09;100856.38;12243796;19;19918;-84
2023/07/04 13:03:43;;;;;;;;;;;27.90;37.00;;;27.15;38.85;100861.84;12242678;19;20235;-85
2023/07/04 13:07:50;;;;;;;;;;;27.90;37.20;;;27.05;38.79;100831.81;12247297;19;19918;-84
2023/07/04 13:11:52;;;;;;;;;;;28.00;37.20;;;27.15;38.85;100851.94;12245514;19;19923;-83
2023/07/04 13:16:31;;;;;;;;;;;28.00;35.30;;;27.23;38.55;100840.28;12245783;19;20341;-84
2023/07/04 13:20:36;;;;;;;;;;;28.00;37.00;;;27.29;38.71;100844.88;12244863;19;19918;-84
2023/07/04 13:24:38;;;;;;;;;;;28.00;36.60;;;27.27;39.00;100841.56;12243311;19;19935;-83
2023/07/04 13:28:44;;;;;;;;;;;28.10;37.20;;;27.30;38.63;100846.56;12245416;19;20317;-83
2023/07/04 13:32:46;;;;;;;;;;;28.20;37.00;;;27.36;38.71;100848.47;12241735;19;19918;-84
2023/07/04 13:36:53;;;;;;;;;;;28.20;37.20;;;27.42;38.45;100862.13;12245161;19;19939;-83
2023/07/04 13:40:55;;;;;;;;;;;28.20;36.60;;;27.36;38.48;100866.44;12244972;19;19927;-84
2023/07/04 13:44:56;;;;;;;;;;;28.20;36.50;;;27.38;38.21;100864.34;12242625;19;19911;-83
2023/07/04 13:48:58;;;;;;;;;;;28.20;36.40;;;27.38;38.53;100866.22;12244426;19;20608;-83
2023/07/04 13:53:07;;;;;;;;;;;28.20;36.70;;;27.40;38.03;100874.91;12248791;19;19918;-84
2023/07/04 13:57:08;;;;;;;;;;;28.20;37.00;;;27.41;38.27;100881.91;12255082;19;19951;-83
2023/07/04 14:01:10;;;;;;;;;;;28.20;36.80;;;27.39;38.09;100874.09;12256292;19;19918;-85
2023/07/04 14:05:12;;;;;;;;;;;28.20;36.30;;;27.34;38.15;100849.69;12254950;19;19929;-84
2023/07/04 14:09:14;;;;;;;;;;;28.20;36.90;;;27.25;38.18;100851.66;12256378;19;19939;-83
2023/07/04 14:13:15;;;;;;;;;;;28.20;37.00;;;27.46;38.23;100879.50;12252389;19;19950;-83
2023/07/04 14:17:17;;;;;;;;;;;28.20;36.70;;;27.37;38.37;100884.16;12258266;19;19930;-83
2023/07/04 14:21:20;;;;;;;;;;;28.20;36.70;;;27.29;38.04;100871.72;12256162;19;19923;-83
2023/07/04 14:25:22;;;;;;;;;;;28.10;36.90;;;27.29;38.10;100876.25;12256972;19;20363;-83
2023/07/04 14:29:23;;;;;;;;;;;28.10;36.70;;;27.38;38.21;100872.41;12258685;19;19942;-84
2023/07/04 14:33:25;;;;;;;;;;;28.10;36.90;;;27.46;38.05;100871.44;12256373;19;19911;-83
2023/07/04 14:37:27;;;;;;;;;;;28.20;36.40;;;27.47;38.00;100873.13;12256323;19;20300;-83
2023/07/04 14:41:29;;;;;;;;;;;28.20;35.70;;;27.49;37.90;100866.56;12261358;19;19947;-83
2023/07/04 14:45:31;;;;;;;;;;;28.20;36.20;;;27.36;37.82;100851.16;12258810;19;19953;-85
2023/07/04 14:49:35;;;;;;;;;;;28.30;36.30;;;27.51;37.78;100863.66;12259879;19;19939;-83
2023/07/04 14:53:37;;;;;;;;;;;28.30;36.30;;;27.46;37.94;100852.66;12256431;19;19982;-85
2023/07/04 14:57:38;;;;;;;;;;;28.30;36.50;;;27.60;38.02;100865.19;12255162;19;19942;-84
2023/07/04 15:01:40;;;;;;;;;;;28.30;36.40;;;27.57;37.69;100861.06;12254532;19;19944;-83
2023/07/04 15:05:41;;;;;;;;;;;28.40;36.30;;;27.63;37.76;100869.34;12250689;19;19919;-84
2023/07/04 15:09:43;;;;;;;;;;;28.40;35.50;;;27.54;37.59;100876.69;12255286;19;19923;-84
2023/07/04 15:13:46;;;;;;;;;;;28.30;36.20;;;27.51;37.74;100871.72;12253719;19;20261;-84
2023/07/04 15:17:47;;;;;;;;;;;28.30;35.90;;;27.45;37.80;100877.84;12256747;19;19919;-84
2023/07/04 15:21:49;;;;;;;;;;;28.20;36.50;;;27.25;37.55;100840.94;12256534;19;19922;-85
2023/07/04 15:25:56;;;;;;;;;;;28.20;35.00;;;27.38;37.39;100868.91;12256402;19;19986;-85
2023/07/04 15:29:59;;;;;;;;;;;28.10;36.30;;;27.41;37.32;100853.28;12254315;19;19918;-84
2023/07/04 15:34:01;;;;;;;;;;;28.20;36.30;;;27.51;37.77;100860.97;12253714;19;19970;-83
2023/07/04 15:38:03;;;;;;;;;;;28.20;36.00;;;27.49;37.78;100855.81;12254226;19;19935;-85
2023/07/04 15:42:04;;;;;;;;;;;28.20;36.50;;;27.53;37.53;100853.56;12254721;19;19927;-83
2023/07/04 15:46:10;;;;;;;;;;;28.20;36.20;;;27.54;37.23;100857.91;12255337;19;19911;-84
2023/07/04 15:50:12;;;;;;;;;;;28.20;36.60;;;27.44;37.19;100850.19;12255156;19;19937;-85
2023/07/04 15:54:14;;;;;;;;;;;28.30;36.40;;;27.38;37.28;100845.59;12251775;19;20358;-86
2023/07/04 15:58:16;;;;;;;;;;;28.20;36.30;;;27.44;37.16;100865.47;12255366;19;19921;-85
2023/07/04 16:02:18;;;;;;;;;;;28.20;36.70;;;27.09;37.06;100815.19;12253637;19;19931;-85
2023/07/04 16:06:19;;;;;;;;;;;28.10;36.70;;;27.21;37.04;100836.97;12260771;19;19922;-86
2023/07/04 16:10:21;;;;;;;;;;;28.00;36.20;;;27.25;37.05;100840.94;12264501;19;19926;-86
2023/07/04 16:14:22;;;;;;;;;;;28.00;36.00;;;27.16;37.22;100825.94;12259140;19;19934;-86
2023/07/04 16:18:24;;;;;;;;;;;27.90;36.40;;;27.04;36.95;100822.13;12260968;19;19926;-84
2023/07/04 16:22:25;;;;;;;;;;;28.00;36.20;;;27.25;36.92;100846.31;12257620;19;19926;-85
2023/07/04 16:26:27;;;;;;;;;;;27.90;36.40;;;27.11;37.02;100833.72;12260547;19;19945;-85
2023/07/04 16:30:29;;;;;;;;;;;27.90;36.40;;;27.08;36.73;100828.75;12261076;19;19911;-85
2023/07/04 16:34:31;;;;;;;;;;;27.90;36.30;;;27.28;36.85;100869.22;12257279;19;19932;-88
2023/07/04 16:38:32;;;;;;;;;;;27.90;36.60;;;27.09;37.25;100842.00;12261517;19;19930;-88
2023/07/04 16:42:34;;;;;;;;;;;27.90;36.70;;;27.15;36.92;100856.47;12263822;19;19915;-87
2023/07/04 16:46:36;;;;;;;;;;;27.90;36.60;;;27.20;36.83;100864.81;12263301;19;19910;-88
2023/07/04 16:50:39;;;;;;;;;;;27.90;36.60;;;27.21;36.92;100881.72;12265610;19;20352;-86
2023/07/04 16:54:41;;;;;;;;;;;27.90;36.60;;;27.14;36.99;100887.00;12255176;19;19919;-87
2023/07/04 16:58:42;;;;;;;;;;;27.80;36.20;;;27.08;36.88;100893.94;12261240;19;19929;-86
2023/07/04 17:02:44;;;;;;;;;;;27.80;36.50;;;27.04;37.08;100891.84;12258209;19;19995;-88
2023/07/04 17:06:46;;;;;;;;;;;27.70;36.40;;;26.99;37.05;100896.94;12258629;19;19919;-86
2023/07/04 17:10:49;;;;;;;;;;;27.70;36.20;;;26.77;37.02;100871.94;12259902;19;20329;-87
2023/07/04 17:14:51;;;;;;;;;;;27.60;36.30;;;26.85;36.74;100891.41;12256138;19;19919;-87
2023/07/04 17:18:52;;;;;;;;;;;27.50;36.20;;;26.81;37.05;100889.28;12259570;19;19915;-87
2023/07/04 17:22:54;;;;;;;;;;;27.50;36.10;;;26.75;37.01;100893.53;12257575;19;19915;-88
2023/07/04 17:26:57;;;;;;;;;;;27.40;35.80;;;26.70;36.84;100910.16;12261306;19;19914;-87
2023/07/04 17:31:02;;;;;;;;;;;27.40;36.20;;;26.55;36.98;100887.94;12275518;19;19911;-86
2023/07/04 17:35:04;;;;;;;;;;;27.30;36.40;;;26.59;36.58;100907.13;12268390;19;19978;-86
2023/07/04 17:39:06;;;;;;;;;;;27.20;36.50;;;26.47;37.00;100896.03;12272163;19;19915;-86
2023/07/04 17:43:08;;;;;;;;;;;27.20;36.60;;;26.48;36.98;100906.53;12265530;19;19918;-88
2023/07/04 17:47:10;;;;;;;;;;;27.10;36.50;;;26.41;36.90;100905.63;12269041;19;19922;-86
2023/07/04 17:51:13;;;;;;;;;;;27.10;36.50;;;26.14;36.94;100883.00;12264751;19;19919;-85
2023/07/04 17:55:15;;;;;;;;;;;27.00;36.50;;;26.31;36.78;100913.09;12262002;19;19914;-86
2023/07/04 17:59:17;;;;;;;;;;;26.90;36.50;;;26.29;36.96;100931.19;12260571;19;19934;-90
2023/07/04 18:03:18;;;;;;;;;;;26.90;36.50;;;26.29;36.67;100931.19;12260077;19;19919;-89
2023/07/04 18:07:21;;;;;;;;;;;26.80;36.60;;;26.25;36.97;100932.59;12258245;19;20258;-89
2023/07/04 18:11:25;;;;;;;;;;;26.80;36.60;;;26.12;36.66;100919.81;12259429;19;19922;-90
2023/07/04 18:15:27;;;;;;;;;;;26.80;36.60;;;26.16;36.86;100939.00;12260703;19;19919;-90